Time;durP1;ratioP1;P1;durP2;ratioP2;P2;SDS_P1;SDS_P2;PMS_P1;PMS_P2;Temp;Humidity;BMP_temperature;BMP_pressure;BME280_temperature;BME280_humidity;BME280_pressure;Samples;Min_cycle;Max_cycle;Signal;HPM_P1;HPM_P2
2022/05/15 00:00:38;;;;;;;19.58;2.97;;;14.30;99.90;;;;;;4994895;28;20093;-66
2022/05/15 00:03:12;;;;;;;14.70;2.88;;;14.30;99.90;;;;;;4991738;28;20070;-66
2022/05/15 00:05:38;;;;;;;17.70;3.35;;;14.30;99.90;;;;;;4995618;28;20780;-67
2022/05/15 00:08:04;;;;;;;13.52;2.70;;;14.20;99.90;;;;;;4996905;28;20034;-66
2022/05/15 00:10:30;;;;;;;18.45;3.13;;;14.20;99.90;;;;;;4994358;28;20145;-67
2022/05/15 00:12:56;;;;;;;15.63;2.63;;;14.10;99.90;;;;;;4995783;28;20481;-66
2022/05/15 00:15:22;;;;;;;20.52;3.58;;;14.10;99.90;;;;;;4998998;28;20482;-67
2022/05/15 00:17:47;;;;;;;14.38;2.63;;;14.10;99.90;;;;;;4995989;28;20042;-66
2022/05/15 00:20:13;;;;;;;16.25;3.08;;;14.20;99.90;;;;;;4996670;28;20489;-66
2022/05/15 00:22:40;;;;;;;21.23;3.45;;;14.10;99.90;;;;;;4994679;28;20054;-67
2022/05/15 00:25:06;;;;;;;21.40;3.28;;;14.10;99.90;;;;;;4994904;28;20116;-66
2022/05/15 00:27:32;;;;;;;23.33;4.32;;;14.00;99.90;;;;;;4997693;28;20489;-67
2022/05/15 00:29:57;;;;;;;14.45;3.55;;;14.00;99.90;;;;;;4994759;28;20042;-66
2022/05/15 00:32:23;;;;;;;16.65;3.40;;;13.90;99.90;;;;;;4998502;28;20064;-66
2022/05/15 00:34:48;;;;;;;15.00;2.95;;;13.90;99.90;;;;;;4993647;28;20030;-67
2022/05/15 00:37:14;;;;;;;17.65;3.95;;;13.80;99.90;;;;;;4997412;28;20046;-67
2022/05/15 00:39:39;;;;;;;23.38;2.88;;;13.80;99.90;;;;;;4996496;28;20058;-67
2022/05/15 00:42:10;;;;;;;16.08;2.95;;;13.80;99.90;;;;;;4997567;28;20034;-66
2022/05/15 00:44:36;;;;;;;17.92;3.13;;;13.80;99.90;;;;;;4995648;28;20038;-67
2022/05/15 00:47:02;;;;;;;21.92;3.05;;;13.80;99.90;;;;;;4997337;28;20030;-66
2022/05/15 00:49:28;;;;;;;18.20;3.60;;;13.80;99.90;;;;;;4995968;28;20031;-69
2022/05/15 00:51:59;;;;;;;12.25;2.53;;;13.80;99.90;;;;;;4998231;28;20651;-65
2022/05/15 00:54:30;;;;;;;18.65;2.45;;;13.80;99.90;;;;;;4994613;28;20041;-65
2022/05/15 00:57:02;;;;;;;17.98;3.40;;;13.70;99.90;;;;;;4997694;28;20030;-65
2022/05/15 00:59:33;;;;;;;18.05;2.55;;;13.80;99.90;;;;;;4995288;28;20073;-65
2022/05/15 01:01:59;;;;;;;14.82;2.75;;;13.70;99.90;;;;;;4997535;28;20780;-67
2022/05/15 01:04:25;;;;;;;15.15;2.85;;;13.70;99.90;;;;;;4994436;28;20065;-65
2022/05/15 01:06:50;;;;;;;22.50;3.58;;;13.80;99.90;;;;;;4997852;28;20026;-65
2022/05/15 01:09:16;;;;;;;12.63;2.38;;;13.70;99.90;;;;;;4995582;28;20034;-65
2022/05/15 01:11:46;;;;;;;22.00;3.40;;;13.70;99.90;;;;;;4994414;28;20045;-66
2022/05/15 01:14:13;;;;;;;24.75;4.10;;;13.70;99.90;;;;;;4997477;28;20060;-69
2022/05/15 01:16:39;;;;;;;13.32;2.58;;;13.60;99.90;;;;;;4994027;28;20022;-65
2022/05/15 01:19:06;;;;;;;14.25;3.17;;;13.70;99.90;;;;;;4997085;28;20030;-65
2022/05/15 01:21:55;;;;;;;17.83;3.55;;;13.70;99.90;;;;;;4996612;28;20037;-65
2022/05/15 01:24:21;;;;;;;18.80;2.92;;;13.60;99.90;;;;;;4989527;28;20030;-68
2022/05/15 01:26:46;;;;;;;20.42;3.80;;;13.60;99.90;;;;;;4997573;28;20026;-67
2022/05/15 01:29:13;;;;;;;22.20;4.10;;;13.60;99.90;;;;;;4994472;28;20030;-65
2022/05/15 01:31:38;;;;;;;17.52;2.80;;;13.60;99.90;;;;;;4996788;28;20558;-66
2022/05/15 01:34:08;;;;;;;14.75;2.80;;;13.60;99.90;;;;;;4995514;28;20110;-65
2022/05/15 01:36:33;;;;;;;20.38;3.38;;;13.60;99.90;;;;;;4996032;28;20529;-67
2022/05/15 01:38:59;;;;;;;12.70;3.00;;;13.70;99.90;;;;;;4997121;28;20034;-66
2022/05/15 01:41:25;;;;;;;20.17;2.60;;;13.70;99.90;;;;;;4995264;28;20034;-69
2022/05/15 01:43:53;;;;;;;13.25;2.97;;;13.60;99.90;;;;;;4997154;28;20378;-65
2022/05/15 01:46:21;;;;;;;21.35;2.85;;;13.60;99.90;;;;;;4994549;28;20026;-65
2022/05/15 01:48:48;;;;;;;14.32;3.28;;;13.60;99.90;;;;;;4990880;28;20490;-65
2022/05/15 01:51:15;;;;;;;17.13;2.65;;;13.60;99.90;;;;;;4997989;28;20037;-67
2022/05/15 01:53:40;;;;;;;19.75;3.00;;;13.50;99.90;;;;;;4994189;28;20065;-70
2022/05/15 01:56:06;;;;;;;18.33;3.33;;;13.50;99.90;;;;;;4996964;28;20380;-66
2022/05/15 01:58:33;;;;;;;14.70;3.10;;;13.50;99.90;;;;;;4997354;28;20482;-66
2022/05/15 02:00:58;;;;;;;20.63;2.95;;;13.40;99.90;;;;;;4997231;28;20038;-66
2022/05/15 02:03:24;;;;;;;25.95;4.20;;;13.50;99.90;;;;;;4999868;28;20034;-66
2022/05/15 02:05:50;;;;;;;21.20;4.43;;;13.40;99.90;;;;;;4997905;28;20054;-66
2022/05/15 02:08:17;;;;;;;22.52;3.42;;;13.40;99.90;;;;;;4998340;28;20038;-66
2022/05/15 02:10:43;;;;;;;26.20;3.78;;;13.30;99.90;;;;;;5003446;28;20057;-67
2022/05/15 02:13:09;;;;;;;15.15;3.17;;;13.30;99.90;;;;;;5000731;28;20034;-66
2022/05/15 02:15:35;;;;;;;16.20;4.00;;;13.30;99.90;;;;;;4997116;28;20034;-67
2022/05/15 02:18:00;;;;;;;13.18;2.53;;;13.20;99.90;;;;;;4997534;28;20493;-67
2022/05/15 02:20:26;;;;;;;13.02;3.42;;;13.20;99.90;;;;;;4997672;28;20088;-66
2022/05/15 02:22:52;;;;;;;17.83;3.72;;;13.10;99.90;;;;;;4997206;28;20027;-66
2022/05/15 02:25:17;;;;;;;23.75;3.00;;;13.10;99.90;;;;;;4997207;28;20052;-66
2022/05/15 02:27:43;;;;;;;22.50;3.60;;;13.10;99.90;;;;;;4992697;28;20513;-67
2022/05/15 02:30:10;;;;;;;25.63;3.35;;;13.20;99.90;;;;;;4998036;28;20034;-66
2022/05/15 02:32:36;;;;;;;15.38;2.10;;;13.10;99.90;;;;;;4998943;28;20033;-66
2022/05/15 02:35:01;;;;;;;13.65;2.78;;;13.00;99.90;;;;;;4999198;28;20026;-67
2022/05/15 02:37:27;;;;;;;12.85;3.13;;;12.90;99.90;;;;;;5002703;28;20070;-66
2022/05/15 02:39:53;;;;;;;24.60;4.68;;;12.90;99.90;;;;;;5000608;28;20022;-66
2022/05/15 02:42:20;;;;;;;18.73;2.97;;;12.80;99.90;;;;;;4997138;28;20108;-68
2022/05/15 02:44:46;;;;;;;22.02;3.40;;;12.80;99.90;;;;;;5000211;28;20049;-66
2022/05/15 02:47:11;;;;;;;18.60;3.08;;;12.80;99.90;;;;;;4993878;28;20030;-66
2022/05/15 02:52:21;;;;;;;10.90;2.75;;;12.80;99.90;;;;;;4995511;28;20045;-66
2022/05/15 02:54:47;;;;;;;16.15;2.67;;;12.80;99.90;;;;;;5000442;28;20042;-66
2022/05/15 02:57:13;;;;;;;15.95;2.80;;;12.80;99.90;;;;;;4997688;28;20050;-66
2022/05/15 02:59:38;;;;;;;17.85;3.42;;;12.70;99.90;;;;;;4999417;28;20088;-66
2022/05/15 03:02:05;;;;;;;9.48;2.40;;;12.70;99.90;;;;;;4997070;28;20030;-67
2022/05/15 03:04:32;;;;;;;21.80;3.65;;;12.70;99.90;;;;;;4998233;28;20026;-69
2022/05/15 03:06:58;;;;;;;17.52;3.40;;;12.70;99.90;;;;;;4997811;28;20034;-67
2022/05/15 03:09:23;;;;;;;19.98;3.10;;;12.70;99.90;;;;;;4997588;28;20544;-67
2022/05/15 03:11:49;;;;;;;14.82;3.63;;;12.60;99.90;;;;;;4995590;28;20443;-67
2022/05/15 03:14:14;;;;;;;20.65;3.28;;;12.60;99.90;;;;;;5000783;28;20029;-66
2022/05/15 03:16:40;;;;;;;15.93;3.47;;;12.50;99.90;;;;;;4994399;28;20069;-66
2022/05/15 03:19:06;;;;;;;15.38;2.90;;;12.50;99.90;;;;;;5015528;28;20036;-66
2022/05/15 03:21:31;;;;;;;18.95;3.17;;;12.60;99.90;;;;;;5004828;28;20057;-67
2022/05/15 03:24:04;;;;;;;17.55;3.13;;;12.50;99.90;;;;;;4996832;28;20069;-67
2022/05/15 03:26:31;;;;;;;18.30;3.30;;;12.50;99.90;;;;;;4996014;28;20066;-67
2022/05/15 03:28:57;;;;;;;16.50;3.08;;;12.50;99.90;;;;;;4998207;28;20048;-66
2022/05/15 03:31:23;;;;;;;12.93;2.72;;;12.40;99.90;;;;;;4997823;28;20061;-67
2022/05/15 03:33:48;;;;;;;14.20;3.42;;;12.40;99.90;;;;;;4998700;28;20057;-66
2022/05/15 03:36:15;;;;;;;19.60;3.00;;;12.40;99.90;;;;;;4997288;28;20640;-66
2022/05/15 03:38:43;;;;;;;17.60;2.92;;;12.50;99.90;;;;;;4999265;28;20542;-66
2022/05/15 03:41:09;;;;;;;13.43;2.58;;;12.50;99.90;;;;;;4992869;28;20053;-66
2022/05/15 03:43:36;;;;;;;15.25;2.45;;;12.50;99.90;;;;;;4995227;28;20455;-68
2022/05/15 03:46:03;;;;;;;13.43;2.35;;;12.60;99.90;;;;;;4999314;28;20125;-66
2022/05/15 03:48:29;;;;;;;23.27;3.63;;;12.50;99.90;;;;;;4994515;28;20064;-66
2022/05/15 03:50:55;;;;;;;14.40;2.72;;;12.60;99.90;;;;;;4998066;28;20667;-66
2022/05/15 03:53:21;;;;;;;19.73;3.35;;;12.60;99.90;;;;;;4997244;28;20392;-66
2022/05/15 03:55:47;;;;;;;16.88;2.20;;;12.60;99.90;;;;;;4998762;28;20096;-66
2022/05/15 03:58:12;;;;;;;23.85;2.42;;;12.60;99.90;;;;;;4996920;28;20479;-66
2022/05/15 04:00:38;;;;;;;14.98;2.22;;;12.60;99.90;;;;;;4997789;28;20041;-67
2022/05/15 04:03:03;;;;;;;13.65;2.35;;;12.60;99.90;;;;;;4996487;28;20463;-67
2022/05/15 04:05:29;;;;;;;12.43;2.83;;;12.60;99.90;;;;;;4998602;28;20546;-66
2022/05/15 04:07:58;;;;;;;14.13;2.50;;;12.60;99.90;;;;;;5003830;28;20033;-66
2022/05/15 04:10:24;;;;;;;14.02;2.97;;;12.70;99.90;;;;;;5005792;28;20394;-66
2022/05/15 04:12:50;;;;;;;13.88;3.35;;;12.70;99.90;;;;;;5005925;28;20038;-68
2022/05/15 04:15:16;;;;;;;14.50;2.75;;;12.70;99.90;;;;;;5009808;28;20041;-66
2022/05/15 04:17:49;;;;;;;13.23;2.97;;;12.70;99.90;;;;;;4998833;28;20129;-66
2022/05/15 04:20:19;;;;;;;17.08;2.65;;;12.70;99.90;;;;;;4996884;28;20124;-66
2022/05/15 04:22:45;;;;;;;16.20;2.93;;;12.70;99.90;;;;;;4995201;28;20042;-66
2022/05/15 04:25:11;;;;;;;10.95;2.35;;;12.70;99.90;;;;;;4995818;28;20038;-66
2022/05/15 04:27:38;;;;;;;10.60;2.85;;;12.70;99.90;;;;;;4998354;28;20037;-66
2022/05/15 04:30:05;;;;;;;16.45;2.75;;;12.70;99.90;;;;;;4996137;28;20039;-66
2022/05/15 04:32:31;;;;;;;22.98;3.53;;;12.70;99.90;;;;;;4997124;28;20064;-67
2022/05/15 04:34:56;;;;;;;21.15;3.35;;;12.60;99.90;;;;;;4997169;28;20470;-66
2022/05/15 04:37:22;;;;;;;12.82;2.67;;;12.60;99.90;;;;;;4997225;28;20030;-72
2022/05/15 04:39:47;;;;;;;12.50;2.97;;;12.60;99.90;;;;;;4997602;28;20029;-66
2022/05/15 04:42:13;;;;;;;17.23;2.53;;;12.60;99.90;;;;;;4995234;28;20046;-66
2022/05/15 04:44:39;;;;;;;19.70;3.05;;;12.60;99.90;;;;;;4998755;28;20030;-67
2022/05/15 04:47:05;;;;;;;13.70;2.63;;;12.50;99.90;;;;;;4997867;28;20041;-67
2022/05/15 04:49:30;;;;;;;23.48;2.70;;;12.60;99.90;;;;;;4994969;28;20034;-72
2022/05/15 04:51:56;;;;;;;14.50;2.38;;;12.80;99.90;;;;;;4995876;28;20033;-66
2022/05/15 04:54:21;;;;;;;18.95;2.80;;;12.80;99.90;;;;;;4997099;28;20042;-67
2022/05/15 04:56:47;;;;;;;15.57;2.45;;;12.80;99.90;;;;;;4996506;28;20083;-67
2022/05/15 04:59:12;;;;;;;11.63;3.58;;;12.80;99.90;;;;;;4996058;28;20592;-66
2022/05/15 05:01:38;;;;;;;13.32;2.92;;;12.90;99.90;;;;;;4997725;28;20106;-66
2022/05/15 05:04:04;;;;;;;19.92;3.15;;;13.00;99.90;;;;;;4990171;28;20099;-67
2022/05/15 05:06:29;;;;;;;17.80;4.00;;;13.00;99.90;;;;;;4995372;28;20038;-64
2022/05/15 05:08:55;;;;;;;19.00;3.13;;;13.10;99.90;;;;;;4997978;28;20049;-67
2022/05/15 05:11:22;;;;;;;21.90;2.80;;;13.20;99.90;;;;;;4994630;28;20451;-65
2022/05/15 05:13:48;;;;;;;15.40;3.38;;;13.30;99.90;;;;;;4996153;28;20033;-67
2022/05/15 05:16:15;;;;;;;12.60;2.50;;;13.30;99.90;;;;;;4996079;28;20034;-67
2022/05/15 05:18:40;;;;;;;13.45;2.85;;;13.40;99.90;;;;;;4996080;28;20042;-67
2022/05/15 05:21:06;;;;;;;14.35;3.17;;;13.50;99.90;;;;;;4998906;28;20038;-66
2022/05/15 05:23:32;;;;;;;11.35;2.78;;;13.40;99.90;;;;;;4993051;28;20387;-66
2022/05/15 05:25:58;;;;;;;16.15;2.25;;;13.60;99.90;;;;;;4995183;28;20034;-66
2022/05/15 05:28:25;;;;;;;16.90;2.45;;;13.60;99.90;;;;;;4995073;28;20027;-67
2022/05/15 05:30:51;;;;;;;21.00;3.22;;;13.70;99.90;;;;;;4996766;28;20089;-67
2022/05/15 05:33:17;;;;;;;13.73;2.33;;;13.80;99.90;;;;;;4997003;28;20121;-66
2022/05/15 05:35:44;;;;;;;17.70;2.88;;;13.90;99.90;;;;;;5000609;28;20038;-66
2022/05/15 05:38:10;;;;;;;11.35;2.35;;;14.20;99.90;;;;;;4997790;28;20042;-66
2022/05/15 05:40:36;;;;;;;16.90;2.58;;;14.40;99.90;;;;;;5001006;28;20038;-68
2022/05/15 05:43:02;;;;;;;15.35;2.38;;;14.70;99.90;;;;;;4994232;28;20403;-66
2022/05/15 05:45:28;;;;;;;12.95;2.60;;;15.10;99.90;;;;;;5001301;28;20037;-66
2022/05/15 05:47:55;;;;;;;11.73;2.20;;;15.50;99.90;;;;;;4998951;28;20119;-66
2022/05/15 05:50:23;;;;;;;13.40;2.47;;;15.90;99.90;;;;;;5001020;28;20026;-65
2022/05/15 05:52:48;;;;;;;17.77;3.33;;;16.30;99.90;;;;;;4997650;28;20037;-66
2022/05/15 05:55:15;;;;;;;14.07;2.50;;;17.10;99.90;;;;;;4998473;28;20113;-66
2022/05/15 05:57:42;;;;;;;10.93;3.35;;;17.80;99.90;;;;;;4999594;28;20036;-67
2022/05/15 06:00:21;;;;;;;13.23;3.20;;;19.00;99.50;;;;;;4997899;28;20038;-67
2022/05/15 06:02:47;;;;;;;14.77;3.40;;;19.80;97.60;;;;;;4994039;28;20390;-67
2022/05/15 06:05:13;;;;;;;8.70;3.05;;;20.60;96.60;;;;;;4997528;28;20030;-68
2022/05/15 06:07:39;;;;;;;12.38;3.17;;;21.60;93.90;;;;;;4997786;28;20047;-69
2022/05/15 06:10:07;;;;;;;14.70;3.70;;;21.90;92.20;;;;;;4998072;28;20521;-68
2022/05/15 06:12:33;;;;;;;16.17;3.78;;;22.20;91.70;;;;;;4999306;28;20137;-67
2022/05/15 06:14:59;;;;;;;10.52;2.30;;;22.90;91.40;;;;;;4995736;28;20538;-66
2022/05/15 06:17:27;;;;;;;8.07;2.47;;;23.60;89.90;;;;;;5001340;28;20061;-68
2022/05/15 06:19:54;;;;;;;13.23;3.65;;;24.50;86.50;;;;;;4999044;28;20029;-67
2022/05/15 06:22:19;;;;;;;18.13;4.25;;;25.10;82.80;;;;;;4996922;28;20037;-67
2022/05/15 06:24:45;;;;;;;12.55;2.95;;;25.70;79.80;;;;;;4994363;28;20038;-68
2022/05/15 06:27:11;;;;;;;11.68;2.95;;;25.60;78.80;;;;;;4999702;28;20679;-67
2022/05/15 06:29:39;;;;;;;14.32;3.30;;;25.70;78.20;;;;;;4996392;28;20396;-68
2022/05/15 06:32:05;;;;;;;16.10;3.58;;;26.10;75.50;;;;;;4992102;28;20030;-68
2022/05/15 06:34:31;;;;;;;14.23;3.53;;;26.40;74.60;;;;;;4991526;28;20030;-71
2022/05/15 06:36:56;;;;;;;9.48;2.95;;;26.60;73.40;;;;;;4994706;28;20085;-68
2022/05/15 06:39:22;;;;;;;10.73;3.35;;;26.70;72.50;;;;;;4992356;28;20088;-68
2022/05/15 06:41:50;;;;;;;13.30;3.17;;;27.00;70.80;;;;;;4991586;28;20030;-67
2022/05/15 06:44:17;;;;;;;12.00;3.42;;;27.00;72.50;;;;;;4992154;28;20041;-68
2022/05/15 06:46:43;;;;;;;15.73;3.65;;;27.50;69.20;;;;;;4990104;28;20133;-67
2022/05/15 06:49:09;;;;;;;12.80;2.75;;;27.40;69.80;;;;;;4993294;28;20054;-67
2022/05/15 06:51:34;;;;;;;11.48;3.83;;;27.60;68.10;;;;;;4992156;28;20054;-68
2022/05/15 06:54:00;;;;;;;14.60;4.22;;;27.90;69.70;;;;;;4990237;28;20038;-66
2022/05/15 06:59:10;;;;;;;10.73;3.13;;;28.30;67.90;;;;;;4997156;28;20045;-68
2022/05/15 07:01:36;;;;;;;12.88;3.40;;;28.90;66.20;;;;;;4997576;28;20045;-68
2022/05/15 07:04:01;;;;;;;17.25;4.50;;;29.10;64.40;;;;;;4995423;28;20042;-68
2022/05/15 07:06:27;;;;;;;13.55;3.78;;;28.90;66.30;;;;;;4986620;28;20694;-71
2022/05/15 07:08:53;;;;;;;15.98;4.03;;;29.50;62.90;;;;;;4997960;28;20029;-68
2022/05/15 07:11:18;;;;;;;11.63;3.72;;;29.80;62.00;;;;;;4995703;28;20037;-68
2022/05/15 07:13:44;;;;;;;11.93;3.38;;;29.60;64.20;;;;;;4996136;28;20037;-67
2022/05/15 07:16:10;;;;;;;12.98;3.55;;;29.70;63.20;;;;;;4993551;28;20050;-68
2022/05/15 07:18:37;;;;;;;15.48;3.78;;;30.00;61.00;;;;;;4994432;28;20498;-67
2022/05/15 07:21:03;;;;;;;15.00;4.03;;;30.10;59.70;;;;;;4994826;28;20038;-68
2022/05/15 07:23:29;;;;;;;14.30;4.35;;;30.00;59.70;;;;;;4996256;28;20042;-67
2022/05/15 07:25:55;;;;;;;25.95;4.80;;;29.90;60.50;;;;;;4997714;28;20038;-68
2022/05/15 07:28:21;;;;;;;9.82;3.45;;;30.10;60.40;;;;;;4996079;28;20407;-67
2022/05/15 07:30:49;;;;;;;15.50;3.72;;;30.10;59.90;;;;;;4996532;28;20169;-67
2022/05/15 07:33:18;;;;;;;9.65;3.20;;;30.20;60.20;;;;;;4994756;28;20026;-68
2022/05/15 07:35:44;;;;;;;10.63;3.42;;;30.70;58.70;;;;;;4995885;28;20757;-68
2022/05/15 07:38:09;;;;;;;7.60;3.15;;;30.50;58.90;;;;;;4997229;28;20129;-68
2022/05/15 07:40:35;;;;;;;15.43;4.47;;;30.40;59.20;;;;;;4995520;28;20038;-67
2022/05/15 07:43:05;;;;;;;10.18;3.65;;;30.30;57.80;;;;;;4997597;28;20083;-68
2022/05/15 07:45:31;;;;;;;20.17;4.28;;;29.60;58.40;;;;;;4994344;28;20546;-70
2022/05/15 07:47:56;;;;;;;12.20;3.42;;;29.20;58.80;;;;;;4995371;28;20038;-66
2022/05/15 07:50:22;;;;;;;14.07;3.55;;;28.30;59.60;;;;;;4997799;28;20034;-67
2022/05/15 07:52:48;;;;;;;7.75;2.63;;;27.40;61.30;;;;;;4994481;28;20593;-67
2022/05/15 07:55:14;;;;;;;14.20;3.40;;;26.70;63.00;;;;;;4996750;28;20034;-67
2022/05/15 07:57:39;;;;;;;11.68;2.83;;;26.30;63.20;;;;;;4996414;28;20037;-68
2022/05/15 08:00:10;;;;;;;11.13;2.80;;;25.90;64.10;;;;;;4996154;28;20037;-67
2022/05/15 08:02:36;;;;;;;10.68;2.67;;;25.60;66.10;;;;;;4990063;28;20046;-68
2022/05/15 08:08:03;;;;;;;9.85;2.78;;;25.20;66.30;;;;;;4994384;28;20031;-67
2022/05/15 08:10:32;;;;;;;12.55;2.38;;;24.70;69.00;;;;;;4991231;28;20057;-66
2022/05/15 08:12:58;;;;;;;11.03;3.27;;;24.60;67.50;;;;;;4994732;28;20081;-65
2022/05/15 08:15:24;;;;;;;18.85;4.05;;;24.60;66.70;;;;;;4994542;28;20022;-64
2022/05/15 08:17:49;;;;;;;11.50;2.63;;;24.50;67.30;;;;;;4993217;28;20030;-64
2022/05/15 08:25:45;;;;;;;8.23;2.55;;;23.90;69.70;;;;;;4992146;28;20041;-65
2022/05/15 08:28:12;;;;;;;9.88;2.58;;;23.90;69.20;;;;;;4995398;28;20026;-67
2022/05/15 08:30:38;;;;;;;12.75;3.03;;;23.80;69.90;;;;;;4990034;28;20655;-66
2022/05/15 08:33:04;;;;;;;11.60;2.45;;;23.80;70.60;;;;;;4994920;28;20045;-65
2022/05/15 08:35:31;;;;;;;5.93;2.00;;;23.90;72.00;;;;;;4997590;28;20038;-65
2022/05/15 08:37:57;;;;;;;20.63;3.20;;;24.20;70.00;;;;;;4995232;28;20118;-65
2022/05/15 08:40:30;;;;;;;11.60;2.70;;;24.10;69.70;;;;;;4997031;28;20120;-65
2022/05/15 08:42:58;;;;;;;11.40;2.85;;;24.30;69.30;;;;;;4988437;28;20042;-65
2022/05/15 08:45:27;;;;;;;9.98;2.83;;;24.20;70.80;;;;;;4991768;28;20034;-65
2022/05/15 08:48:06;;;;;;;11.93;2.75;;;24.30;70.50;;;;;;4990656;28;20034;-65
2022/05/15 08:50:43;;;;;;;9.38;2.17;;;24.30;70.80;;;;;;4991806;28;20706;-65
2022/05/15 08:53:15;;;;;;;11.25;2.53;;;24.20;72.10;;;;;;4994423;28;20038;-66
2022/05/15 08:55:43;;;;;;;9.23;2.42;;;24.30;69.40;;;;;;4996298;28;20565;-64
2022/05/15 08:58:26;;;;;;;8.15;2.90;;;24.30;70.20;;;;;;4996625;28;20494;-66
2022/05/15 09:00:54;;;;;;;10.38;3.28;;;24.30;69.80;;;;;;4982795;28;20037;-65
2022/05/15 09:03:21;;;;;;;9.98;2.95;;;24.30;70.10;;;;;;4992223;28;20055;-66
2022/05/15 09:06:07;;;;;;;16.30;3.53;;;24.30;70.30;;;;;;4998163;28;20039;-65
2022/05/15 09:09:01;;;;;;;12.48;2.78;;;24.30;72.30;;;;;;4995992;28;20038;-65
2022/05/15 09:11:55;;;;;;;9.13;2.50;;;24.50;71.90;;;;;;4995817;28;20539;-65
2022/05/15 09:14:41;;;;;;;9.27;2.65;;;24.60;69.70;;;;;;4992247;28;20394;-65
2022/05/15 09:17:25;;;;;;;9.00;2.97;;;24.60;70.20;;;;;;4996457;28;20403;-65
2022/05/15 09:20:11;;;;;;;10.07;2.80;;;24.70;70.70;;;;;;4993071;28;20133;-68
2022/05/15 09:22:45;;;;;;;9.13;2.63;;;24.90;71.60;;;;;;4996905;28;20034;-66
2022/05/15 09:25:17;;;;;;;7.63;2.65;;;25.00;70.50;;;;;;4998273;28;20073;-66
2022/05/15 09:28:08;;;;;;;9.45;2.22;;;25.00;68.20;;;;;;4998492;28;20030;-69
2022/05/15 09:30:37;;;;;;;8.13;2.10;;;24.90;68.50;;;;;;4995894;28;20396;-66
2022/05/15 09:33:03;;;;;;;8.90;2.58;;;25.00;66.70;;;;;;4999638;28;20029;-66
2022/05/15 09:35:39;;;;;;;6.80;2.70;;;24.80;67.10;;;;;;5001519;28;20087;-65
2022/05/15 09:43:50;;;;;;;17.55;3.17;;;24.80;65.40;;;;;;4997621;28;20593;-66
2022/05/15 09:46:20;;;;;;;25.08;3.75;;;24.80;67.00;;;;;;4998611;28;20034;-66
2022/05/15 09:48:54;;;;;;;3.80;1.73;;;24.80;64.90;;;;;;5000890;28;20125;-65
2022/05/15 09:51:29;;;;;;;7.95;2.40;;;24.90;66.60;;;;;;4994471;28;20899;-67
2022/05/15 09:53:57;;;;;;;7.97;2.08;;;25.00;67.90;;;;;;4996969;28;20035;-66
2022/05/15 09:56:29;;;;;;;8.65;2.25;;;25.20;64.70;;;;;;5001225;28;20096;-66
2022/05/15 09:58:59;;;;;;;14.40;2.38;;;25.20;66.00;;;;;;4997729;28;20030;-67
2022/05/15 10:01:48;;;;;;;9.10;2.13;;;25.20;64.90;;;;;;5000046;28;20045;-65
2022/05/15 10:04:24;;;;;;;8.70;2.30;;;25.20;62.10;;;;;;4996083;28;20030;-66
2022/05/15 10:06:58;;;;;;;10.02;1.90;;;25.20;59.20;;;;;;4998156;28;20304;-65
2022/05/15 10:09:31;;;;;;;9.10;2.22;;;25.10;58.40;;;;;;4991186;28;20042;-65
2022/05/15 10:12:14;;;;;;;3.75;1.33;;;24.90;59.20;;;;;;5000125;28;20125;-65
2022/05/15 10:14:51;;;;;;;7.90;1.80;;;24.80;59.50;;;;;;4999005;28;20053;-67
2022/05/15 10:17:19;;;;;;;13.63;2.30;;;24.80;59.30;;;;;;4993932;28;20065;-65
2022/05/15 10:20:19;;;;;;;9.75;2.28;;;24.80;59.80;;;;;;4998098;28;20107;-65
2022/05/15 10:22:56;;;;;;;11.13;2.15;;;24.90;61.00;;;;;;4999220;28;20485;-64
2022/05/15 10:25:40;;;;;;;14.55;1.70;;;24.90;62.00;;;;;;4993898;28;20033;-64
2022/05/15 10:28:22;;;;;;;7.28;2.05;;;25.00;62.60;;;;;;4999381;28;20038;-65
2022/05/15 10:31:15;;;;;;;6.28;1.35;;;25.20;64.70;;;;;;4991990;28;20064;-68
2022/05/15 10:33:45;;;;;;;5.22;1.65;;;25.40;62.80;;;;;;4998331;28;20611;-67
2022/05/15 10:36:33;;;;;;;6.47;1.80;;;25.50;63.50;;;;;;4996438;28;20028;-66
2022/05/15 10:39:19;;;;;;;9.80;2.30;;;25.70;61.60;;;;;;4994429;28;20026;-66
2022/05/15 10:42:13;;;;;;;7.22;1.80;;;25.50;62.30;;;;;;4991203;28;20333;-66
2022/05/15 10:44:51;;;;;;;8.60;2.13;;;25.40;63.10;;;;;;4997881;28;20049;-67
2022/05/15 10:47:20;;;;;;;10.02;1.67;;;25.50;64.40;;;;;;4993233;28;20050;-67
2022/05/15 10:50:18;;;;;;;7.73;1.70;;;25.50;62.00;;;;;;4991936;28;20066;-65
2022/05/15 10:57:21;;;;;;;6.20;1.48;;;25.60;62.50;;;;;;4999438;28;20046;-66
2022/05/15 10:59:15;;;;;;;8.88;1.65;;;25.50;60.10;;;;;;4987746;28;20125;-66
2022/05/15 11:01:55;;;;;;;8.25;1.17;;;25.40;60.50;;;;;;4996524;28;20046;-66
2022/05/15 11:04:49;;;;;;;8.82;2.22;;;25.40;60.60;;;;;;4993486;28;20041;-66
2022/05/15 11:07:56;;;;;;;8.52;1.77;;;25.60;60.10;;;;;;4991456;28;20038;-65
2022/05/15 11:10:45;;;;;;;10.68;2.38;;;25.70;58.90;;;;;;4932455;28;20035;-67
2022/05/15 11:13:28;;;;;;;5.53;1.43;;;25.40;58.40;;;;;;4990493;28;20095;-66
2022/05/15 11:16:12;;;;;;;11.75;1.52;;;25.40;61.00;;;;;;4990675;28;20281;-64
2022/05/15 11:19:03;;;;;;;7.78;1.60;;;25.50;59.60;;;;;;4993533;28;20038;-66
2022/05/15 11:21:51;;;;;;;9.70;1.90;;;25.60;60.90;;;;;;4975174;28;20042;-66
2022/05/15 11:24:33;;;;;;;6.97;1.73;;;25.80;59.90;;;;;;4988785;28;20057;-64
2022/05/15 11:27:24;;;;;;;10.15;1.50;;;25.80;59.50;;;;;;4991627;28;20087;-66
2022/05/15 11:29:52;;;;;;;3.03;1.58;;;25.80;58.00;;;;;;4983368;28;20521;-66
2022/05/15 11:32:39;;;;;;;9.43;1.23;;;25.90;57.10;;;;;;4997338;28;20605;-64
2022/05/15 11:35:17;;;;;;;5.75;1.25;;;25.70;57.00;;;;;;4998379;28;20066;-66
2022/05/15 11:37:51;;;;;;;8.48;1.70;;;25.60;57.90;;;;;;4989943;28;20137;-66
2022/05/15 11:40:40;;;;;;;4.72;1.30;;;25.50;57.10;;;;;;4990684;28;20121;-66
2022/05/15 11:43:30;;;;;;;12.52;1.65;;;25.50;56.90;;;;;;4996701;28;20422;-65
2022/05/15 11:46:05;;;;;;;4.43;1.10;;;25.40;57.00;;;;;;4996482;28;20045;-66
2022/05/15 11:48:30;;;;;;;5.82;1.30;;;25.40;56.40;;;;;;4997219;28;20038;-66
2022/05/15 11:51:22;;;;;;;6.75;1.08;;;25.40;58.60;;;;;;4989148;28;20038;-65
2022/05/15 11:53:48;;;;;;;4.95;1.25;;;25.40;57.70;;;;;;4990328;28;20054;-66
2022/05/15 11:56:34;;;;;;;8.25;1.75;;;25.50;57.70;;;;;;4985237;28;20046;-68
2022/05/15 11:59:06;;;;;;;6.40;1.77;;;25.50;56.30;;;;;;4990443;28;20121;-63
2022/05/15 12:01:38;;;;;;;7.78;1.13;;;25.40;55.60;;;;;;4990116;28;20120;-69
2022/05/15 12:04:15;;;;;;;6.35;1.10;;;25.30;56.00;;;;;;4996002;28;20406;-66
2022/05/15 12:06:46;;;;;;;7.75;1.65;;;25.20;55.00;;;;;;4989606;28;20125;-66
2022/05/15 12:09:18;;;;;;;6.95;1.33;;;25.10;55.90;;;;;;4990193;28;20409;-67
2022/05/15 12:11:49;;;;;;;6.85;1.52;;;25.10;53.80;;;;;;4988078;28;20050;-66
2022/05/15 12:14:27;;;;;;;4.60;0.82;;;25.10;54.30;;;;;;4990303;28;20060;-65
2022/05/15 12:17:01;;;;;;;8.60;1.20;;;25.00;54.40;;;;;;4995716;28;20053;-66
2022/05/15 12:19:31;;;;;;;3.58;0.75;;;25.10;54.50;;;;;;4992739;28;20437;-66
2022/05/15 12:22:00;;;;;;;4.47;1.05;;;25.10;54.30;;;;;;4991525;28;20046;-66
2022/05/15 12:24:33;;;;;;;8.68;1.02;;;25.10;53.60;;;;;;4991904;28;20057;-66
2022/05/15 12:27:33;;;;;;;14.52;1.52;;;25.00;52.60;;;;;;4993594;28;20041;-66
2022/05/15 12:30:08;;;;;;;4.57;1.10;;;24.90;53.90;;;;;;4980006;28;20473;-65
2022/05/15 12:32:45;;;;;;;5.55;0.98;;;24.90;54.10;;;;;;4984558;28;20117;-66
2022/05/15 12:35:31;;;;;;;4.00;0.70;;;25.00;54.20;;;;;;4989586;28;20487;-65
2022/05/15 12:38:03;;;;;;;4.95;1.10;;;25.10;53.60;;;;;;4990412;28;20034;-65
2022/05/15 12:40:54;;;;;;;3.92;1.15;;;25.00;53.50;;;;;;4995188;28;20092;-66
2022/05/15 12:43:33;;;;;;;5.38;1.23;;;24.90;55.70;;;;;;4991285;28;20042;-66
2022/05/15 12:45:59;;;;;;;5.55;0.90;;;25.00;53.90;;;;;;4994567;28;20069;-67
2022/05/15 12:48:26;;;;;;;9.45;1.25;;;25.00;54.50;;;;;;4992132;28;20037;-66
2022/05/15 12:51:03;;;;;;;5.28;1.35;;;24.90;54.00;;;;;;4990001;28;20034;-66
2022/05/15 12:53:37;;;;;;;3.78;0.98;;;25.00;54.40;;;;;;4994980;28;20414;-66
2022/05/15 12:56:29;;;;;;;5.72;1.23;;;25.00;54.10;;;;;;4995766;28;20193;-65
2022/05/15 12:58:59;;;;;;;4.53;0.95;;;24.90;54.80;;;;;;4992478;28;20054;-65
2022/05/15 13:01:31;;;;;;;5.13;1.08;;;24.90;54.90;;;;;;4993763;28;20402;-65
2022/05/15 13:03:58;;;;;;;5.30;1.73;;;25.10;53.90;;;;;;4995173;28;20093;-66
2022/05/15 13:06:39;;;;;;;7.95;1.25;;;25.10;53.80;;;;;;4994905;28;20053;-67
2022/05/15 13:09:08;;;;;;;6.70;1.23;;;25.00;54.00;;;;;;4995504;28;20398;-65
2022/05/15 13:11:42;;;;;;;4.55;1.15;;;25.10;54.50;;;;;;4997820;28;20042;-66
2022/05/15 13:14:17;;;;;;;3.67;1.30;;;25.20;54.60;;;;;;4990366;28;20049;-66
2022/05/15 13:16:47;;;;;;;9.13;1.63;;;25.20;54.90;;;;;;4993410;28;20107;-67
2022/05/15 13:19:16;;;;;;;9.65;2.05;;;25.20;55.30;;;;;;4995100;28;20027;-67